sensor_id;sensor_type;location;lat;lon;timestamp;pressure;altitude;pressure_sealevel;temperature;humidity
5988;BME280;3021;51.000;6.980;2023-09-30T00:02:25;67782.72;;;13.28;100.00
5988;BME280;3021;51.000;6.980;2023-09-30T00:04:51;67778.09;;;13.24;100.00
5988;BME280;3021;51.000;6.980;2023-09-30T00:07:16;67768.41;;;13.18;100.00
5988;BME280;3021;51.000;6.980;2023-09-30T00:09:41;67764.34;;;13.14;100.00
5988;BME280;3021;51.000;6.980;2023-09-30T00:12:07;67758.56;;;13.09;100.00
5988;BME280;3021;51.000;6.980;2023-09-30T00:14:32;67756.09;;;13.05;100.00
5988;BME280;3021;51.000;6.980;2023-09-30T00:16:57;67753.22;;;13.02;100.00
5988;BME280;3021;51.000;6.980;2023-09-30T00:19:23;67749.72;;;12.99;100.00
5988;BME280;3021;51.000;6.980;2023-09-30T00:21:48;67749.00;;;12.96;100.00
5988;BME280;3021;51.000;6.980;2023-09-30T00:24:14;67750.16;;;12.97;100.00
5988;BME280;3021;51.000;6.980;2023-09-30T00:26:39;67746.25;;;12.96;100.00
5988;BME280;3021;51.000;6.980;2023-09-30T00:29:04;67746.84;;;12.96;100.00
5988;BME280;3021;51.000;6.980;2023-09-30T00:31:30;67747.41;;;12.97;100.00
5988;BME280;3021;51.000;6.980;2023-09-30T00:33:56;67746.84;;;12.96;100.00
5988;BME280;3021;51.000;6.980;2023-09-30T00:36:21;67749.13;;;12.99;100.00
5988;BME280;3021;51.000;6.980;2023-09-30T00:38:47;67749.72;;;12.99;100.00
5988;BME280;3021;51.000;6.980;2023-09-30T00:41:12;67758.25;;;13.04;100.00
5988;BME280;3021;51.000;6.980;2023-09-30T00:43:38;67761.31;;;13.09;100.00
5988;BME280;3021;51.000;6.980;2023-09-30T00:48:34;67763.19;;;13.13;100.00
5988;BME280;3021;51.000;6.980;2023-09-30T00:51:00;67762.03;;;13.12;100.00
5988;BME280;3021;51.000;6.980;2023-09-30T00:53:27;67765.94;;;13.13;100.00
5988;BME280;3021;51.000;6.980;2023-09-30T00:55:53;67763.63;;;13.11;100.00
5988;BME280;3021;51.000;6.980;2023-09-30T00:58:21;67764.63;;;13.10;100.00
5988;BME280;3021;51.000;6.980;2023-09-30T01:00:48;67761.75;;;13.07;100.00
5988;BME280;3021;51.000;6.980;2023-09-30T01:03:17;67756.09;;;13.05;100.00
5988;BME280;3021;51.000;6.980;2023-09-30T01:05:43;67753.22;;;13.02;100.00
5988;BME280;3021;51.000;6.980;2023-09-30T01:08:09;67751.47;;;13.01;100.00
5988;BME280;3021;51.000;6.980;2023-09-30T01:10:35;67749.72;;;12.99;100.00
5988;BME280;3021;51.000;6.980;2023-09-30T01:13:00;67749.13;;;12.99;100.00
5988;BME280;3021;51.000;6.980;2023-09-30T01:15:28;67746.84;;;12.96;100.00
5988;BME280;3021;51.000;6.980;2023-09-30T01:17:54;67747.41;;;12.97;100.00
5988;BME280;3021;51.000;6.980;2023-09-30T01:20:19;67746.25;;;12.96;100.00
5988;BME280;3021;51.000;6.980;2023-09-30T01:22:47;67742.34;;;12.95;100.00
5988;BME280;3021;51.000;6.980;2023-09-30T01:25:13;67746.84;;;12.96;100.00
5988;BME280;3021;51.000;6.980;2023-09-30T01:27:38;67748.00;;;12.98;100.00
5988;BME280;3021;51.000;6.980;2023-09-30T01:30:04;67750.88;;;13.00;100.00
5988;BME280;3021;51.000;6.980;2023-09-30T01:32:29;67754.78;;;13.01;100.00
5988;BME280;3021;51.000;6.980;2023-09-30T01:34:55;67746.38;;;12.99;100.00
5988;BME280;3021;51.000;6.980;2023-09-30T01:37:20;67744.94;;;12.92;100.00
5988;BME280;3021;51.000;6.980;2023-09-30T01:39:46;67738.72;;;12.89;100.00
5988;BME280;3021;51.000;6.980;2023-09-30T01:42:11;67734.66;;;12.86;100.00
5988;BME280;3021;51.000;6.980;2023-09-30T01:44:36;67734.66;;;12.86;100.00
5988;BME280;3021;51.000;6.980;2023-09-30T01:47:02;67734.09;;;12.85;100.00
5988;BME280;3021;51.000;6.980;2023-09-30T01:49:27;67736.41;;;12.87;100.00
5988;BME280;3021;51.000;6.980;2023-09-30T01:51:53;67737.00;;;12.88;100.00
5988;BME280;3021;51.000;6.980;2023-09-30T01:54:18;67740.47;;;12.91;100.00
5988;BME280;3021;51.000;6.980;2023-09-30T01:56:44;67742.78;;;12.93;100.00
5988;BME280;3021;51.000;6.980;2023-09-30T01:59:09;67738.88;;;12.92;100.00
5988;BME280;3021;51.000;6.980;2023-09-30T02:01:34;67734.09;;;12.85;100.00
5988;BME280;3021;51.000;6.980;2023-09-30T02:03:59;67724.25;;;12.76;100.00
5988;BME280;3021;51.000;6.980;2023-09-30T02:06:25;67716.16;;;12.69;100.00
5988;BME280;3021;51.000;6.980;2023-09-30T02:08:50;67709.19;;;12.63;100.00
5988;BME280;3021;51.000;6.980;2023-09-30T02:11:16;67704.59;;;12.59;100.00
5988;BME280;3021;51.000;6.980;2023-09-30T02:13:42;67700.97;;;12.53;100.00
5988;BME280;3021;51.000;6.980;2023-09-30T02:16:12;67693.00;;;12.49;100.00
5988;BME280;3021;51.000;6.980;2023-09-30T02:18:39;67689.97;;;12.43;100.00
5988;BME280;3021;51.000;6.980;2023-09-30T02:21:05;67683.16;;;12.40;100.00
5988;BME280;3021;51.000;6.980;2023-09-30T02:23:30;67676.78;;;12.34;100.00
5988;BME280;3021;51.000;6.980;2023-09-30T02:25:56;67668.84;;;12.30;100.00
5988;BME280;3021;51.000;6.980;2023-09-30T02:28:21;67665.78;;;12.24;100.00
5988;BME280;3021;51.000;6.980;2023-09-30T02:30:46;67661.91;;;12.23;100.00
5988;BME280;3021;51.000;6.980;2023-09-30T02:33:12;67666.22;;;12.22;100.00
5988;BME280;3021;51.000;6.980;2023-09-30T02:35:37;67658.28;;;12.18;100.00
5988;BME280;3021;51.000;6.980;2023-09-30T02:38:04;67655.81;;;12.13;100.00
5988;BME280;3021;51.000;6.980;2023-09-30T02:40:29;67651.31;;;12.12;100.00
5988;BME280;3021;51.000;6.980;2023-09-30T02:42:54;67648.44;;;12.09;100.00
5988;BME280;3021;51.000;6.980;2023-09-30T02:45:20;67643.22;;;12.04;100.00
5988;BME280;3021;51.000;6.980;2023-09-30T02:47:45;67641.06;;;12.05;100.00
5988;BME280;3021;51.000;6.980;2023-09-30T02:50:12;67646.13;;;12.07;100.00
5988;BME280;3021;51.000;6.980;2023-09-30T02:52:37;67648.56;;;12.12;100.00
5988;BME280;3021;51.000;6.980;2023-09-30T02:55:07;67653.50;;;12.11;100.00
5988;BME280;3021;51.000;6.980;2023-09-30T02:57:33;67646.13;;;12.07;100.00
5988;BME280;3021;51.000;6.980;2023-09-30T02:59:58;67643.22;;;12.04;100.00
5988;BME280;3021;51.000;6.980;2023-09-30T03:02:25;67637.59;;;12.02;100.00
5988;BME280;3021;51.000;6.980;2023-09-30T03:04:51;67641.50;;;12.03;100.00
5988;BME280;3021;51.000;6.980;2023-09-30T03:07:18;67639.75;;;12.01;100.00
5988;BME280;3021;51.000;6.980;2023-09-30T03:09:44;67637.44;;;11.99;100.00
5988;BME280;3021;51.000;6.980;2023-09-30T03:12:11;67639.75;;;12.01;100.00
5988;BME280;3021;51.000;6.980;2023-09-30T03:14:37;67643.66;;;12.02;100.00
5988;BME280;3021;51.000;6.980;2023-09-30T03:17:02;67642.06;;;12.03;100.00
5988;BME280;3021;51.000;6.980;2023-09-30T03:19:28;67641.50;;;12.03;100.00
5988;BME280;3021;51.000;6.980;2023-09-30T03:21:54;67642.66;;;12.04;100.00
5988;BME280;3021;51.000;6.980;2023-09-30T03:24:19;67642.66;;;12.04;100.00
5988;BME280;3021;51.000;6.980;2023-09-30T03:26:46;67641.50;;;12.03;100.00
5988;BME280;3021;51.000;6.980;2023-09-30T03:29:11;67638.03;;;12.00;100.00
5988;BME280;3021;51.000;6.980;2023-09-30T03:31:37;67636.72;;;11.96;100.00
5988;BME280;3021;51.000;6.980;2023-09-30T03:34:03;67629.31;;;11.92;100.00
5988;BME280;3021;51.000;6.980;2023-09-30T03:36:29;67625.84;;;11.89;100.00
5988;BME280;3021;51.000;6.980;2023-09-30T03:38:56;67621.34;;;11.87;100.00
5988;BME280;3021;51.000;6.980;2023-09-30T03:41:24;67623.53;;;11.87;100.00
5988;BME280;3021;51.000;6.980;2023-09-30T03:43:49;67620.06;;;11.84;100.00
5988;BME280;3021;51.000;6.980;2023-09-30T03:46:15;67614.88;;;11.79;100.00
5988;BME280;3021;51.000;6.980;2023-09-30T03:48:41;67606.31;;;11.74;100.00
5988;BME280;3021;51.000;6.980;2023-09-30T03:51:14;67602.72;;;11.68;100.00
5988;BME280;3021;51.000;6.980;2023-09-30T03:53:46;67600.81;;;11.64;100.00
5988;BME280;3021;51.000;6.980;2023-09-30T03:56:11;67591.72;;;11.58;100.00
5988;BME280;3021;51.000;6.980;2023-09-30T03:58:38;67592.72;;;11.57;100.00
5988;BME280;3021;51.000;6.980;2023-09-30T04:01:03;67585.94;;;11.53;100.00
5988;BME280;3021;51.000;6.980;2023-09-30T04:03:29;67584.78;;;11.52;100.00
5988;BME280;3021;51.000;6.980;2023-09-30T04:05:55;67581.88;;;11.50;100.00
5988;BME280;3021;51.000;6.980;2023-09-30T04:08:20;67579.59;;;11.48;100.00
5988;BME280;3021;51.000;6.980;2023-09-30T04:10:47;67578.41;;;11.47;100.00
5988;BME280;3021;51.000;6.980;2023-09-30T04:13:12;67580.00;;;11.46;100.00
5988;BME280;3021;51.000;6.980;2023-09-30T04:15:38;67577.69;;;11.44;100.00
5988;BME280;3021;51.000;6.980;2023-09-30T04:18:04;67569.75;;;11.39;100.00
5988;BME280;3021;51.000;6.980;2023-09-30T04:20:32;67573.06;;;11.39;100.00
5988;BME280;3021;51.000;6.980;2023-09-30T04:22:58;67570.91;;;11.40;100.00
5988;BME280;3021;51.000;6.980;2023-09-30T04:25:24;67573.22;;;11.42;100.00
5988;BME280;3021;51.000;6.980;2023-09-30T04:27:52;67573.22;;;11.42;100.00
5988;BME280;3021;51.000;6.980;2023-09-30T04:30:18;67568.75;;;11.40;100.00
5988;BME280;3021;51.000;6.980;2023-09-30T04:32:43;67568.59;;;11.38;100.00
5988;BME280;3021;51.000;6.980;2023-09-30T04:35:09;67565.13;;;11.35;100.00
5988;BME280;3021;51.000;6.980;2023-09-30T04:37:35;67561.66;;;11.32;100.00
5988;BME280;3021;51.000;6.980;2023-09-30T04:40:04;67558.78;;;11.29;100.00
5988;BME280;3021;51.000;6.980;2023-09-30T04:42:41;67552.97;;;11.24;100.00
5988;BME280;3021;51.000;6.980;2023-09-30T04:45:06;67555.72;;;11.24;100.00
5988;BME280;3021;51.000;6.980;2023-09-30T04:47:33;67551.81;;;11.23;100.00
5988;BME280;3021;51.000;6.980;2023-09-30T04:49:58;67549.50;;;11.21;100.00
5988;BME280;3021;51.000;6.980;2023-09-30T04:52:24;67546.03;;;11.18;100.00
5988;BME280;3021;51.000;6.980;2023-09-30T04:54:52;67541.56;;;11.16;100.00
5988;BME280;3021;51.000;6.980;2023-09-30T04:57:18;67541.56;;;11.16;100.00
5988;BME280;3021;51.000;6.980;2023-09-30T04:59:44;67544.31;;;11.16;100.00
5988;BME280;3021;51.000;6.980;2023-09-30T05:02:11;67545.91;;;11.15;100.00
5988;BME280;3021;51.000;6.980;2023-09-30T05:04:39;67539.25;;;11.14;100.00
5988;BME280;3021;51.000;6.980;2023-09-30T05:07:05;67541.84;;;11.12;100.00
5988;BME280;3021;51.000;6.980;2023-09-30T05:09:30;67542.00;;;11.14;100.00
5988;BME280;3021;51.000;6.980;2023-09-30T05:11:56;67547.34;;;11.21;100.00
5988;BME280;3021;51.000;6.980;2023-09-30T05:14:21;67547.22;;;11.19;100.00
5988;BME280;3021;51.000;6.980;2023-09-30T05:16:47;67544.88;;;11.17;100.00
5988;BME280;3021;51.000;6.980;2023-09-30T05:19:12;67544.31;;;11.16;100.00
5988;BME280;3021;51.000;6.980;2023-09-30T05:21:38;67540.25;;;11.13;100.00
5988;BME280;3021;51.000;6.980;2023-09-30T05:24:04;67541.41;;;11.14;100.00
5988;BME280;3021;51.000;6.980;2023-09-30T05:26:30;67550.09;;;11.21;100.00
5988;BME280;3021;51.000;6.980;2023-09-30T05:28:55;67552.25;;;11.21;100.00
5988;BME280;3021;51.000;6.980;2023-09-30T05:31:21;67546.63;;;11.18;100.00
5988;BME280;3021;51.000;6.980;2023-09-30T05:33:46;67551.81;;;11.23;100.00
5988;BME280;3021;51.000;6.980;2023-09-30T05:36:11;67549.66;;;11.23;100.00
5988;BME280;3021;51.000;6.980;2023-09-30T05:38:39;67548.94;;;11.20;100.00
5988;BME280;3021;51.000;6.980;2023-09-30T05:41:04;67546.63;;;11.18;100.00
5988;BME280;3021;51.000;6.980;2023-09-30T05:43:31;67543.88;;;11.18;100.00
5988;BME280;3021;51.000;6.980;2023-09-30T05:45:57;67549.50;;;11.21;100.00
5988;BME280;3021;51.000;6.980;2023-09-30T05:48:23;67548.50;;;11.22;100.00
5988;BME280;3021;51.000;6.980;2023-09-30T05:50:49;67548.94;;;11.20;100.00
5988;BME280;3021;51.000;6.980;2023-09-30T05:53:15;67551.25;;;11.22;100.00
5988;BME280;3021;51.000;6.980;2023-09-30T05:55:41;67553.69;;;11.27;100.00
5988;BME280;3021;51.000;6.980;2023-09-30T05:58:13;67565.13;;;11.35;100.00
5988;BME280;3021;51.000;6.980;2023-09-30T06:00:42;67569.75;;;11.39;100.00
5988;BME280;3021;51.000;6.980;2023-09-30T06:03:08;67576.13;;;11.45;100.00
5988;BME280;3021;51.000;6.980;2023-09-30T06:05:34;67588.09;;;11.53;100.00
5988;BME280;3021;51.000;6.980;2023-09-30T06:08:04;67596.34;;;11.63;100.00
5988;BME280;3021;51.000;6.980;2023-09-30T06:10:29;67606.78;;;11.72;100.00
5988;BME280;3021;51.000;6.980;2023-09-30T06:12:56;67618.19;;;11.80;100.00
5988;BME280;3021;51.000;6.980;2023-09-30T06:15:23;67624.25;;;11.90;100.00
5988;BME280;3021;51.000;6.980;2023-09-30T06:17:51;67631.34;;;11.99;100.00
5988;BME280;3021;51.000;6.980;2023-09-30T06:20:20;67645.53;;;12.06;100.00
5988;BME280;3021;51.000;6.980;2023-09-30T06:22:47;67649.00;;;12.09;100.00
5988;BME280;3021;51.000;6.980;2023-09-30T06:25:15;67650.19;;;12.10;100.00
5988;BME280;3021;51.000;6.980;2023-09-30T06:27:44;67649.59;;;12.10;100.00
5988;BME280;3021;51.000;6.980;2023-09-30T06:30:10;67650.19;;;12.10;100.00
5988;BME280;3021;51.000;6.980;2023-09-30T06:32:36;67656.53;;;12.16;100.00
5988;BME280;3021;51.000;6.980;2023-09-30T06:35:02;67667.41;;;12.23;100.00
5988;BME280;3021;51.000;6.980;2023-09-30T06:37:29;67672.91;;;12.33;100.00
5988;BME280;3021;51.000;6.980;2023-09-30T06:39:55;67688.34;;;12.44;100.00
5988;BME280;3021;51.000;6.980;2023-09-30T06:42:21;67698.78;;;12.54;100.00
5988;BME280;3021;51.000;6.980;2023-09-30T06:44:46;67693.59;;;12.49;100.00
5988;BME280;3021;51.000;6.980;2023-09-30T06:47:11;67698.22;;;12.53;100.00
5988;BME280;3021;51.000;6.980;2023-09-30T06:49:37;67704.59;;;12.59;100.00
5988;BME280;3021;51.000;6.980;2023-09-30T06:52:03;67701.84;;;12.59;100.00
5988;BME280;3021;51.000;6.980;2023-09-30T06:54:28;67704.72;;;12.61;100.00
5988;BME280;3021;51.000;6.980;2023-09-30T06:56:55;67701.97;;;12.61;100.00
5988;BME280;3021;51.000;6.980;2023-09-30T06:59:21;67714.53;;;12.70;100.00
5988;BME280;3021;51.000;6.980;2023-09-30T07:01:46;67733.53;;;12.85;100.00
5988;BME280;3021;51.000;6.980;2023-09-30T07:04:12;67734.81;;;12.88;100.00
5988;BME280;3021;51.000;6.980;2023-09-30T07:06:37;67742.91;;;12.95;100.00
5988;BME280;3021;51.000;6.980;2023-09-30T07:09:02;67756.81;;;13.08;100.00
5988;BME280;3021;51.000;6.980;2023-09-30T07:11:30;67773.59;;;13.23;100.00
5988;BME280;3021;51.000;6.980;2023-09-30T07:13:58;67792.59;;;13.37;100.00
5988;BME280;3021;51.000;6.980;2023-09-30T07:16:23;67821.13;;;13.65;100.00
5988;BME280;3021;51.000;6.980;2023-09-30T07:18:49;67869.81;;;14.08;100.00
5988;BME280;3021;51.000;6.980;2023-09-30T07:21:15;67888.34;;;14.25;100.00
5988;BME280;3021;51.000;6.980;2023-09-30T07:23:41;67881.53;;;14.21;100.00
5988;BME280;3021;51.000;6.980;2023-09-30T07:26:07;67881.38;;;14.18;100.00
5988;BME280;3021;51.000;6.980;2023-09-30T07:28:33;67876.75;;;14.14;100.00
5988;BME280;3021;51.000;6.980;2023-09-30T07:30:58;67877.91;;;14.15;100.00
5988;BME280;3021;51.000;6.980;2023-09-30T07:33:23;67885.88;;;14.20;100.00
5988;BME280;3021;51.000;6.980;2023-09-30T07:35:49;67896.91;;;14.30;100.00
5988;BME280;3021;51.000;6.980;2023-09-30T07:38:14;67905.72;;;14.40;100.00
5988;BME280;3021;51.000;6.980;2023-09-30T07:40:39;67928.78;;;14.58;100.00
5988;BME280;3021;51.000;6.980;2023-09-30T07:43:05;67951.41;;;14.78;100.00
5988;BME280;3021;51.000;6.980;2023-09-30T07:45:30;67943.59;;;14.76;100.00
5988;BME280;3021;51.000;6.980;2023-09-30T07:47:56;67958.66;;;14.90;100.00
5988;BME280;3021;51.000;6.980;2023-09-30T07:50:23;68002.16;;;15.28;100.00
5988;BME280;3021;51.000;6.980;2023-09-30T07:52:49;68054.66;;;15.70;100.00
5988;BME280;3021;51.000;6.980;2023-09-30T07:55:15;68082.81;;;16.00;100.00
5988;BME280;3021;51.000;6.980;2023-09-30T07:57:41;68101.84;;;16.14;100.00
5988;BME280;3021;51.000;6.980;2023-09-30T08:00:08;68116.22;;;16.24;100.00
5988;BME280;3021;51.000;6.980;2023-09-30T08:02:39;68151.06;;;16.55;100.00
5988;BME280;3021;51.000;6.980;2023-09-30T08:05:06;68150.59;;;16.57;100.00
5988;BME280;3021;51.000;6.980;2023-09-30T08:07:32;68129.13;;;16.38;100.00
5988;BME280;3021;51.000;6.980;2023-09-30T08:09:58;68159.34;;;16.65;100.00
5988;BME280;3021;51.000;6.980;2023-09-30T08:12:23;68213.50;;;17.16;100.00
5988;BME280;3021;51.000;6.980;2023-09-30T08:14:49;68230.34;;;17.31;100.00
5988;BME280;3021;51.000;6.980;2023-09-30T08:17:16;68252.41;;;17.50;100.00
5988;BME280;3021;51.000;6.980;2023-09-30T08:19:42;68279.16;;;17.74;100.00
5988;BME280;3021;51.000;6.980;2023-09-30T08:22:08;68265.66;;;17.59;100.00
5988;BME280;3021;51.000;6.980;2023-09-30T08:24:35;68269.72;;;17.63;100.00
5988;BME280;3021;51.000;6.980;2023-09-30T08:27:01;68298.06;;;17.86;100.00
5988;BME280;3021;51.000;6.980;2023-09-30T08:29:26;68318.13;;;18.08;100.00
5988;BME280;3021;51.000;6.980;2023-09-30T08:31:52;68332.66;;;18.21;100.00
5988;BME280;3021;51.000;6.980;2023-09-30T08:34:17;68351.84;;;18.38;100.00
5988;BME280;3021;51.000;6.980;2023-09-30T08:36:45;68366.25;;;18.48;100.00
5988;BME280;3021;51.000;6.980;2023-09-30T08:39:10;68325.56;;;18.12;100.00
5988;BME280;3021;51.000;6.980;2023-09-30T08:41:36;68318.00;;;18.06;100.00
5988;BME280;3021;51.000;6.980;2023-09-30T08:44:03;68341.84;;;18.27;100.00
5988;BME280;3021;51.000;6.980;2023-09-30T08:46:33;68344.59;;;18.27;100.00
5988;BME280;3021;51.000;6.980;2023-09-30T08:49:04;68389.66;;;18.72;100.00
5988;BME280;3021;51.000;6.980;2023-09-30T08:51:31;68422.56;;;18.96;100.00
5988;BME280;3021;51.000;6.980;2023-09-30T08:53:58;68457.63;;;19.29;100.00
5988;BME280;3021;51.000;6.980;2023-09-30T08:56:28;68567.78;;;20.29;100.00
5988;BME280;3021;51.000;6.980;2023-09-30T08:58:58;68710.56;;;21.55;100.00
5988;BME280;3021;51.000;6.980;2023-09-30T09:01:27;68759.53;;;21.99;100.00
5988;BME280;3021;51.000;6.980;2023-09-30T09:03:54;68757.22;;;21.97;100.00
5988;BME280;3021;51.000;6.980;2023-09-30T09:06:21;68761.88;;;22.01;100.00
5988;BME280;3021;51.000;6.980;2023-09-30T09:08:46;68826.03;;;22.57;100.00
5988;BME280;3021;51.000;6.980;2023-09-30T09:11:12;68848.78;;;22.77;100.00
5988;BME280;3021;51.000;6.980;2023-09-30T09:13:50;68759.53;;;21.99;100.00
5988;BME280;3021;51.000;6.980;2023-09-30T09:16:17;68778.19;;;22.15;100.00
5988;BME280;3021;51.000;6.980;2023-09-30T09:18:45;68852.88;;;22.81;100.00
5988;BME280;3021;51.000;6.980;2023-09-30T09:21:17;68773.41;;;22.08;100.00
5988;BME280;3021;51.000;6.980;2023-09-30T09:23:51;68798.03;;;22.33;100.00
5988;BME280;3021;51.000;6.980;2023-09-30T09:26:27;68840.63;;;22.70;100.00
5988;BME280;3021;51.000;6.980;2023-09-30T09:29:00;68874.34;;;22.98;100.00
5988;BME280;3021;51.000;6.980;2023-09-30T09:31:27;68903.06;;;23.25;100.00
5988;BME280;3021;51.000;6.980;2023-09-30T09:33:53;69035.63;;;24.42;100.00
5988;BME280;3021;51.000;6.980;2023-09-30T09:36:19;69131.59;;;25.29;100.00
5988;BME280;3021;51.000;6.980;2023-09-30T09:38:47;69127.84;;;25.21;100.00
5988;BME280;3021;51.000;6.980;2023-09-30T09:41:14;69268.34;;;26.47;100.00
5988;BME280;3021;51.000;6.980;2023-09-30T09:43:41;69232.06;;;26.15;100.00
5988;BME280;3021;51.000;6.980;2023-09-30T09:46:08;69262.47;;;26.42;100.00
5988;BME280;3021;51.000;6.980;2023-09-30T09:48:36;69274.66;;;26.50;100.00
5988;BME280;3021;51.000;6.980;2023-09-30T09:51:03;69410.59;;;27.72;100.00
5988;BME280;3021;51.000;6.980;2023-09-30T09:53:34;69485.56;;;28.38;100.00
5988;BME280;3021;51.000;6.980;2023-09-30T09:56:00;69526.09;;;28.76;100.00
5988;BME280;3021;51.000;6.980;2023-09-30T09:58:26;69480.97;;;28.37;100.00
5988;BME280;3021;51.000;6.980;2023-09-30T10:00:52;69585.28;;;29.28;100.00
5988;BME280;3021;51.000;6.980;2023-09-30T10:03:18;69619.19;;;29.56;100.00
5988;BME280;3021;51.000;6.980;2023-09-30T10:05:44;69554.09;;;28.99;100.00
5988;BME280;3021;51.000;6.980;2023-09-30T10:08:15;69582.25;;;29.23;100.00
5988;BME280;3021;51.000;6.980;2023-09-30T10:10:43;69535.34;;;28.82;100.00
5988;BME280;3021;51.000;6.980;2023-09-30T10:13:09;69611.09;;;29.51;100.00
5988;BME280;3021;51.000;6.980;2023-09-30T10:15:37;69722.41;;;30.46;100.00
5988;BME280;3021;51.000;6.980;2023-09-30T10:18:07;69838.00;;;31.48;100.00
5988;BME280;3021;51.000;6.980;2023-09-30T10:20:38;69949.00;;;32.45;100.00
5988;BME280;3021;51.000;6.980;2023-09-30T10:23:26;70052.53;;;33.38;100.00
5988;BME280;3021;51.000;6.980;2023-09-30T10:25:53;70063.69;;;33.48;100.00
5988;BME280;3021;51.000;6.980;2023-09-30T10:28:36;69879.13;;;31.84;100.00
5988;BME280;3021;51.000;6.980;2023-09-30T10:36:40;69733.44;;;30.54;100.00
5988;BME280;3021;51.000;6.980;2023-09-30T10:39:12;69677.25;;;30.07;100.00
5988;BME280;3021;51.000;6.980;2023-09-30T10:46:50;69171.13;;;25.59;100.00
5988;BME280;3021;51.000;6.980;2023-09-30T10:49:36;69005.72;;;24.13;100.00
5988;BME280;3021;51.000;6.980;2023-09-30T10:52:04;68930.38;;;23.47;100.00
5988;BME280;3021;51.000;6.980;2023-09-30T10:54:31;68911.59;;;23.28;100.00
5988;BME280;3021;51.000;6.980;2023-09-30T10:56:58;68909.94;;;23.29;100.00
5988;BME280;3021;51.000;6.980;2023-09-30T10:59:30;68920.59;;;23.41;100.00
5988;BME280;3021;51.000;6.980;2023-09-30T11:01:56;68861.03;;;22.88;100.00
5988;BME280;3021;51.000;6.980;2023-09-30T11:04:21;68838.16;;;22.66;100.00
5988;BME280;3021;51.000;6.980;2023-09-30T11:06:47;68868.50;;;22.92;100.00
5988;BME280;3021;51.000;6.980;2023-09-30T11:09:17;68894.78;;;23.16;100.00
5988;BME280;3021;51.000;6.980;2023-09-30T11:11:44;68881.34;;;23.04;100.00
5988;BME280;3021;51.000;6.980;2023-09-30T11:14:24;68841.22;;;22.71;100.00
5988;BME280;3021;51.000;6.980;2023-09-30T11:16:51;68837.13;;;22.67;100.00
5988;BME280;3021;51.000;6.980;2023-09-30T11:19:18;68870.25;;;22.94;100.00
5988;BME280;3021;51.000;6.980;2023-09-30T11:21:46;68879.13;;;23.04;100.00
5988;BME280;3021;51.000;6.980;2023-09-30T11:24:14;68882.50;;;23.05;100.00
5988;BME280;3021;51.000;6.980;2023-09-30T11:26:39;68868.03;;;22.94;100.00
5988;BME280;3021;51.000;6.980;2023-09-30T11:29:07;68831.63;;;22.57;100.00
5988;BME280;3021;51.000;6.980;2023-09-30T11:31:32;68778.06;;;22.13;100.00
5988;BME280;3021;51.000;6.980;2023-09-30T11:34:00;68723.84;;;21.65;100.00
5988;BME280;3021;51.000;6.980;2023-09-30T11:36:30;68705.19;;;21.48;100.00
5988;BME280;3021;51.000;6.980;2023-09-30T11:38:56;68687.69;;;21.33;100.00
5988;BME280;3021;51.000;6.980;2023-09-30T11:41:22;68702.84;;;21.46;100.00
5988;BME280;3021;51.000;6.980;2023-09-30T11:49:31;68754.16;;;21.91;100.00
5988;BME280;3021;51.000;6.980;2023-09-30T11:52:00;68777.50;;;22.12;100.00
5988;BME280;3021;51.000;6.980;2023-09-30T11:54:36;68780.53;;;22.17;100.00
5988;BME280;3021;51.000;6.980;2023-09-30T11:57:09;68767.00;;;22.03;100.00
5988;BME280;3021;51.000;6.980;2023-09-30T11:59:38;68797.19;;;22.27;100.00
5988;BME280;3021;51.000;6.980;2023-09-30T12:02:06;68862.22;;;22.89;100.00
5988;BME280;3021;51.000;6.980;2023-09-30T12:04:32;68838.28;;;22.68;100.00
5988;BME280;3021;51.000;6.980;2023-09-30T12:06:57;68897.84;;;23.21;100.00
5988;BME280;3021;51.000;6.980;2023-09-30T12:09:23;68879.13;;;23.04;100.00
5988;BME280;3021;51.000;6.980;2023-09-30T12:11:53;68863.38;;;22.90;100.00
5988;BME280;3021;51.000;6.980;2023-09-30T12:14:20;68879.69;;;23.05;100.00
5988;BME280;3021;51.000;6.980;2023-09-30T12:16:46;68917.53;;;23.36;100.00
5988;BME280;3021;51.000;6.980;2023-09-30T12:19:13;68946.16;;;23.61;100.00
5988;BME280;3021;51.000;6.980;2023-09-30T12:21:41;68946.28;;;23.63;100.00
5988;BME280;3021;51.000;6.980;2023-09-30T12:24:07;68933.88;;;23.50;100.00
5988;BME280;3021;51.000;6.980;2023-09-30T12:26:35;68917.66;;;23.38;100.00
5988;BME280;3021;51.000;6.980;2023-09-30T12:29:01;68914.16;;;23.35;100.00
5988;BME280;3021;51.000;6.980;2023-09-30T12:31:26;68901.78;;;23.22;100.00
5988;BME280;3021;51.000;6.980;2023-09-30T12:33:52;68863.38;;;22.90;100.00
5988;BME280;3021;51.000;6.980;2023-09-30T12:36:19;68831.63;;;22.57;100.00
5988;BME280;3021;51.000;6.980;2023-09-30T12:38:44;68789.59;;;22.20;100.00
5988;BME280;3021;51.000;6.980;2023-09-30T12:41:10;68778.53;;;22.10;100.00
5988;BME280;3021;51.000;6.980;2023-09-30T12:43:36;68778.91;;;22.18;100.00
5988;BME280;3021;51.000;6.980;2023-09-30T12:46:01;68777.94;;;22.10;100.00
5988;BME280;3021;51.000;6.980;2023-09-30T12:48:27;68752.41;;;21.90;100.00
5988;BME280;3021;51.000;6.980;2023-09-30T12:50:52;68729.09;;;21.69;100.00
5988;BME280;3021;51.000;6.980;2023-09-30T12:53:18;68704.00;;;21.47;100.00
5988;BME280;3021;51.000;6.980;2023-09-30T12:55:43;68682.44;;;21.28;100.00
5988;BME280;3021;51.000;6.980;2023-09-30T12:58:08;68660.88;;;21.09;100.00
5988;BME280;3021;51.000;6.980;2023-09-30T13:00:34;68652.72;;;21.02;100.00
5988;BME280;3021;51.000;6.980;2023-09-30T13:03:01;68646.91;;;20.97;100.00
5988;BME280;3021;51.000;6.980;2023-09-30T13:05:27;68639.91;;;20.91;100.00
5988;BME280;3021;51.000;6.980;2023-09-30T13:07:55;68634.66;;;20.86;100.00
5988;BME280;3021;51.000;6.980;2023-09-30T13:10:21;68626.50;;;20.79;100.00
5988;BME280;3021;51.000;6.980;2023-09-30T13:12:47;68617.78;;;20.71;100.00
5988;BME280;3021;51.000;6.980;2023-09-30T13:15:15;68606.09;;;20.61;100.00
5988;BME280;3021;51.000;6.980;2023-09-30T13:17:42;68599.69;;;20.55;100.00
5988;BME280;3021;51.000;6.980;2023-09-30T13:20:08;68602.59;;;20.58;100.00
5988;BME280;3021;51.000;6.980;2023-09-30T13:22:34;68617.63;;;20.68;100.00
5988;BME280;3021;51.000;6.980;2023-09-30T13:25:01;68624.75;;;20.77;100.00
5988;BME280;3021;51.000;6.980;2023-09-30T13:27:27;68623.72;;;20.79;100.00